sensor_id;sensor_type;location;lat;lon;timestamp;pressure;altitude;pressure_sealevel;temperature;humidity
1480;BME280;732;51.698;4.886;2023-03-15T00:01:14;101332.56;;;-0.58;78.70
1480;BME280;732;51.698;4.886;2023-03-15T00:03:45;101254.28;;;-1.13;79.18
1480;BME280;732;51.698;4.886;2023-03-15T00:06:16;101336.56;;;-0.38;78.58
1480;BME280;732;51.698;4.886;2023-03-15T00:08:44;101286.97;;;-0.73;78.28
1480;BME280;732;51.698;4.886;2023-03-15T00:11:14;101314.13;;;-0.58;78.79
1480;BME280;732;51.698;4.886;2023-03-15T00:13:43;101318.25;;;-0.54;79.09
1480;BME280;732;51.698;4.886;2023-03-15T00:16:12;101344.78;;;-0.30;78.91
1480;BME280;732;51.698;4.886;2023-03-15T00:18:44;101344.16;;;-0.34;78.71
1480;BME280;732;51.698;4.886;2023-03-15T00:21:14;101261.66;;;-0.76;79.40
1480;BME280;732;51.698;4.886;2023-03-15T00:23:43;101343.47;;;-0.23;79.04
1480;BME280;732;51.698;4.886;2023-03-15T00:26:12;101330.75;;;-0.44;79.48
1480;BME280;732;51.698;4.886;2023-03-15T00:28:41;101338.41;;;-0.26;80.40
1480;BME280;732;51.698;4.886;2023-03-15T00:31:14;101346.00;;;-0.21;80.14
1480;BME280;732;51.698;4.886;2023-03-15T00:33:44;101360.84;;;-0.06;79.98
1480;BME280;732;51.698;4.886;2023-03-15T00:36:15;101309.69;;;-0.31;79.65
1480;BME280;732;51.698;4.886;2023-03-15T00:38:43;101386.00;;;0.13;79.22
1480;BME280;732;51.698;4.886;2023-03-15T00:41:16;101375.31;;;0.01;79.30
1480;BME280;732;51.698;4.886;2023-03-15T00:43:45;101356.00;;;0.01;79.26
1480;BME280;732;51.698;4.886;2023-03-15T00:46:16;101380.72;;;0.13;79.37
1480;BME280;732;51.698;4.886;2023-03-15T00:48:47;101390.38;;;-0.01;80.35
1480;BME280;732;51.698;4.886;2023-03-15T00:51:20;101385.47;;;0.08;79.90
1480;BME280;732;51.698;4.886;2023-03-15T00:53:51;101385.88;;;0.01;80.19
1480;BME280;732;51.698;4.886;2023-03-15T00:56:22;101362.47;;;-0.18;80.20
1480;BME280;732;51.698;4.886;2023-03-15T00:58:51;101395.03;;;-0.04;80.82
1480;BME280;732;51.698;4.886;2023-03-15T01:01:22;101350.41;;;-0.35;81.11
1480;BME280;732;51.698;4.886;2023-03-15T01:03:52;101358.31;;;-0.35;81.23
1480;BME280;732;51.698;4.886;2023-03-15T01:06:24;101365.84;;;-0.57;82.45
1480;BME280;732;51.698;4.886;2023-03-15T01:08:53;101350.44;;;-0.64;81.86
1480;BME280;732;51.698;4.886;2023-03-15T01:11:26;101365.41;;;-0.64;81.40
1480;BME280;732;51.698;4.886;2023-03-15T01:13:57;101355.63;;;-0.62;80.83
1480;BME280;732;51.698;4.886;2023-03-15T01:16:27;101379.34;;;-0.62;81.62
1480;BME280;732;51.698;4.886;2023-03-15T01:18:55;101399.00;;;-0.68;82.23
1480;BME280;732;51.698;4.886;2023-03-15T01:21:26;101381.88;;;-0.75;81.33
1480;BME280;732;51.698;4.886;2023-03-15T01:23:54;101376.72;;;-0.62;81.09
1480;BME280;732;51.698;4.886;2023-03-15T01:26:23;101417.19;;;-0.21;80.83
1480;BME280;732;51.698;4.886;2023-03-15T01:28:52;101412.56;;;-0.18;80.24
1480;BME280;732;51.698;4.886;2023-03-15T01:31:24;101413.03;;;-0.11;80.50
1480;BME280;732;51.698;4.886;2023-03-15T01:33:53;101380.34;;;-0.36;79.94
1480;BME280;732;51.698;4.886;2023-03-15T01:36:22;101440.00;;;-0.20;80.49
1480;BME280;732;51.698;4.886;2023-03-15T01:38:54;101433.44;;;-0.00;80.59
1480;BME280;732;51.698;4.886;2023-03-15T01:41:31;101434.22;;;0.15;79.59
1480;BME280;732;51.698;4.886;2023-03-15T01:43:59;101441.22;;;0.16;79.01
1480;BME280;732;51.698;4.886;2023-03-15T01:46:30;101421.44;;;0.09;79.31
1480;BME280;732;51.698;4.886;2023-03-15T01:49:14;101436.78;;;0.16;78.99
1480;BME280;732;51.698;4.886;2023-03-15T01:51:49;101418.47;;;0.00;78.70
1480;BME280;732;51.698;4.886;2023-03-15T01:54:25;101449.47;;;0.24;78.22
1480;BME280;732;51.698;4.886;2023-03-15T01:57:01;101450.31;;;0.25;78.31
1480;BME280;732;51.698;4.886;2023-03-15T01:59:35;101448.63;;;0.24;78.69
1480;BME280;732;51.698;4.886;2023-03-15T02:02:04;101450.78;;;0.31;78.36
1480;BME280;732;51.698;4.886;2023-03-15T02:04:37;101450.03;;;0.29;78.56
1480;BME280;732;51.698;4.886;2023-03-15T02:07:09;101456.13;;;0.30;78.15
1480;BME280;732;51.698;4.886;2023-03-15T02:09:48;101455.19;;;0.31;77.97
1480;BME280;732;51.698;4.886;2023-03-15T02:12:19;101412.78;;;0.07;77.76
1480;BME280;732;51.698;4.886;2023-03-15T02:14:49;101369.00;;;-0.23;77.78
1480;BME280;732;51.698;4.886;2023-03-15T02:17:28;101424.84;;;0.11;78.13
1480;BME280;732;51.698;4.886;2023-03-15T02:20:18;101410.19;;;-0.08;78.17
1480;BME280;732;51.698;4.886;2023-03-15T02:22:57;101450.00;;;0.16;78.25
1480;BME280;732;51.698;4.886;2023-03-15T02:25:38;101455.00;;;0.07;77.86
1480;BME280;732;51.698;4.886;2023-03-15T02:28:14;101463.09;;;0.03;78.51
1480;BME280;732;51.698;4.886;2023-03-15T02:30:45;101466.44;;;-0.07;78.34
1480;BME280;732;51.698;4.886;2023-03-15T02:33:20;101447.13;;;-0.08;78.09
1480;BME280;732;51.698;4.886;2023-03-15T02:35:52;101461.41;;;0.02;78.36
1480;BME280;732;51.698;4.886;2023-03-15T02:38:22;101418.59;;;-0.16;78.58
1480;BME280;732;51.698;4.886;2023-03-15T02:40:50;101478.91;;;0.18;77.70
1480;BME280;732;51.698;4.886;2023-03-15T02:43:24;101433.81;;;-0.06;77.41
1480;BME280;732;51.698;4.886;2023-03-15T02:45:55;101438.91;;;-0.03;77.47
1480;BME280;732;51.698;4.886;2023-03-15T02:48:24;101482.88;;;0.11;77.65
1480;BME280;732;51.698;4.886;2023-03-15T02:50:53;101433.22;;;-0.24;77.39
1480;BME280;732;51.698;4.886;2023-03-15T02:53:22;101448.50;;;-0.30;76.64
1480;BME280;732;51.698;4.886;2023-03-15T02:55:50;101484.09;;;-0.22;77.16
1480;BME280;732;51.698;4.886;2023-03-15T02:58:19;101493.22;;;-0.28;77.56
1480;BME280;732;51.698;4.886;2023-03-15T03:00:50;101500.19;;;-0.27;77.83
1480;BME280;732;51.698;4.886;2023-03-15T03:03:20;101511.56;;;-0.27;77.52
1480;BME280;732;51.698;4.886;2023-03-15T03:05:48;101516.38;;;-0.19;77.17
1480;BME280;732;51.698;4.886;2023-03-15T03:08:17;101526.28;;;-0.22;77.55
1480;BME280;732;51.698;4.886;2023-03-15T03:10:45;101532.88;;;-0.30;77.43
1480;BME280;732;51.698;4.886;2023-03-15T03:13:14;101534.66;;;-0.45;78.04
1480;BME280;732;51.698;4.886;2023-03-15T03:15:43;101545.38;;;-0.48;77.71
1480;BME280;732;51.698;4.886;2023-03-15T03:18:14;101520.78;;;-0.63;77.24
1480;BME280;732;51.698;4.886;2023-03-15T03:20:43;101512.50;;;-0.85;77.18
1480;BME280;732;51.698;4.886;2023-03-15T03:23:12;101487.06;;;-1.01;77.75
1480;BME280;732;51.698;4.886;2023-03-15T03:25:41;101542.06;;;-0.66;77.12
1480;BME280;732;51.698;4.886;2023-03-15T03:28:11;101550.44;;;-0.73;78.22
1480;BME280;732;51.698;4.886;2023-03-15T03:30:40;101549.97;;;-0.66;77.89
1480;BME280;732;51.698;4.886;2023-03-15T03:33:08;101561.19;;;-0.62;78.36
1480;BME280;732;51.698;4.886;2023-03-15T03:35:38;101555.34;;;-0.53;78.42
1480;BME280;732;51.698;4.886;2023-03-15T03:38:08;101527.19;;;-0.67;78.25
1480;BME280;732;51.698;4.886;2023-03-15T03:40:40;101556.22;;;-0.52;77.95
1480;BME280;732;51.698;4.886;2023-03-15T03:43:08;101516.81;;;-0.84;78.60
1480;BME280;732;51.698;4.886;2023-03-15T03:45:37;101565.31;;;-0.58;77.98
1480;BME280;732;51.698;4.886;2023-03-15T03:48:07;101572.31;;;-0.57;78.00
1480;BME280;732;51.698;4.886;2023-03-15T03:50:35;101569.56;;;-0.55;77.74
1480;BME280;732;51.698;4.886;2023-03-15T03:53:05;101580.97;;;-0.55;76.95
1480;BME280;732;51.698;4.886;2023-03-15T03:55:34;101585.66;;;-0.60;77.20
1480;BME280;732;51.698;4.886;2023-03-15T03:58:04;101565.44;;;-0.90;77.38
1480;BME280;732;51.698;4.886;2023-03-15T04:00:47;101591.78;;;-0.90;77.00
1480;BME280;732;51.698;4.886;2023-03-15T04:03:16;101595.31;;;-1.05;77.80
1480;BME280;732;51.698;4.886;2023-03-15T04:05:48;101581.41;;;-1.23;77.46
1480;BME280;732;51.698;4.886;2023-03-15T04:08:25;101590.31;;;-1.26;76.98
1480;BME280;732;51.698;4.886;2023-03-15T04:10:56;101577.25;;;-1.44;77.45
1480;BME280;732;51.698;4.886;2023-03-15T04:13:28;101573.56;;;-1.55;77.69
1480;BME280;732;51.698;4.886;2023-03-15T04:15:59;101570.09;;;-1.72;77.49
1480;BME280;732;51.698;4.886;2023-03-15T04:18:36;101611.91;;;-1.51;77.87
1480;BME280;732;51.698;4.886;2023-03-15T04:21:07;101619.72;;;-1.50;78.10
1480;BME280;732;51.698;4.886;2023-03-15T04:23:41;101622.44;;;-1.51;78.64
1480;BME280;732;51.698;4.886;2023-03-15T04:26:30;101592.81;;;-1.71;78.42
1480;BME280;732;51.698;4.886;2023-03-15T04:29:19;101580.41;;;-1.85;78.01
1480;BME280;732;51.698;4.886;2023-03-15T04:31:59;101636.84;;;-1.59;78.14
1480;BME280;732;51.698;4.886;2023-03-15T04:34:51;101627.97;;;-1.72;78.54
1480;BME280;732;51.698;4.886;2023-03-15T04:37:36;101601.63;;;-1.88;78.44
1480;BME280;732;51.698;4.886;2023-03-15T04:40:25;101620.22;;;-1.75;78.23
1480;BME280;732;51.698;4.886;2023-03-15T04:43:14;101634.53;;;-1.81;78.37
1480;BME280;732;51.698;4.886;2023-03-15T04:45:58;101642.50;;;-1.82;78.58
1480;BME280;732;51.698;4.886;2023-03-15T04:48:39;101620.00;;;-2.04;78.73
1480;BME280;732;51.698;4.886;2023-03-15T04:51:28;101617.38;;;-2.04;78.55
1480;BME280;732;51.698;4.886;2023-03-15T04:54:16;101655.25;;;-1.91;79.02
1480;BME280;732;51.698;4.886;2023-03-15T04:57:00;101629.75;;;-2.06;78.45
1480;BME280;732;51.698;4.886;2023-03-15T04:59:52;101633.94;;;-2.02;78.56
1480;BME280;732;51.698;4.886;2023-03-15T05:02:36;101634.41;;;-2.11;79.08
1480;BME280;732;51.698;4.886;2023-03-15T05:05:22;101653.69;;;-1.95;78.85
1480;BME280;732;51.698;4.886;2023-03-15T05:08:14;101675.38;;;-1.74;78.28
1480;BME280;732;51.698;4.886;2023-03-15T05:10:57;101638.00;;;-1.96;78.16
1480;BME280;732;51.698;4.886;2023-03-15T05:13:50;101682.34;;;-1.72;78.66
1480;BME280;732;51.698;4.886;2023-03-15T05:16:37;101685.63;;;-1.85;79.28
1480;BME280;732;51.698;4.886;2023-03-15T05:19:39;101650.03;;;-1.92;79.27
1480;BME280;732;51.698;4.886;2023-03-15T05:22:28;101684.69;;;-1.50;79.55
1480;BME280;732;51.698;4.886;2023-03-15T05:25:24;101645.31;;;-1.85;80.56
1480;BME280;732;51.698;4.886;2023-03-15T05:28:20;101643.63;;;-1.86;82.14
1480;BME280;732;51.698;4.886;2023-03-15T05:31:11;101571.28;;;-2.11;81.83
1480;BME280;732;51.698;4.886;2023-03-15T05:33:58;101648.69;;;-1.34;80.80
1480;BME280;732;51.698;4.886;2023-03-15T05:36:40;101677.97;;;-1.08;80.67
1480;BME280;732;51.698;4.886;2023-03-15T05:39:27;101710.59;;;-1.11;81.49
1480;BME280;732;51.698;4.886;2023-03-15T05:42:16;101696.75;;;-1.14;81.36
1480;BME280;732;51.698;4.886;2023-03-15T05:45:08;101717.72;;;-0.81;80.28
1480;BME280;732;51.698;4.886;2023-03-15T05:47:56;101727.66;;;-0.70;79.78
1480;BME280;732;51.698;4.886;2023-03-15T05:50:45;101707.34;;;-0.84;79.45
1480;BME280;732;51.698;4.886;2023-03-15T05:53:43;101722.91;;;-0.79;79.88
1480;BME280;732;51.698;4.886;2023-03-15T05:56:32;101737.88;;;-0.96;79.96
1480;BME280;732;51.698;4.886;2023-03-15T05:59:24;101738.56;;;-0.76;79.86
1480;BME280;732;51.698;4.886;2023-03-15T06:02:11;101729.53;;;-0.72;79.67
1480;BME280;732;51.698;4.886;2023-03-15T06:05:01;101741.16;;;-0.60;79.01
1480;BME280;732;51.698;4.886;2023-03-15T06:07:30;101749.72;;;-0.56;79.27
1480;BME280;732;51.698;4.886;2023-03-15T06:09:59;101757.38;;;-0.52;78.98
1480;BME280;732;51.698;4.886;2023-03-15T06:12:28;101722.22;;;-0.83;79.60
1480;BME280;732;51.698;4.886;2023-03-15T06:14:56;101524.81;;;-1.95;78.83
1480;BME280;732;51.698;4.886;2023-03-15T06:17:26;101716.19;;;-0.85;78.77
1480;BME280;732;51.698;4.886;2023-03-15T06:19:55;101777.13;;;-0.59;78.80
1480;BME280;732;51.698;4.886;2023-03-15T06:22:25;101779.69;;;-0.73;79.67
1480;BME280;732;51.698;4.886;2023-03-15T06:24:57;101765.22;;;-1.14;79.74
1480;BME280;732;51.698;4.886;2023-03-15T06:27:26;101791.00;;;-1.03;80.19
1480;BME280;732;51.698;4.886;2023-03-15T06:29:56;101782.97;;;-1.18;79.92
1480;BME280;732;51.698;4.886;2023-03-15T06:32:25;101698.63;;;-1.66;80.15
1480;BME280;732;51.698;4.886;2023-03-15T06:34:54;101774.94;;;-1.32;81.18
1480;BME280;732;51.698;4.886;2023-03-15T06:37:25;101804.22;;;-1.05;81.43
1480;BME280;732;51.698;4.886;2023-03-15T06:40:04;101810.94;;;-0.99;80.87
1480;BME280;732;51.698;4.886;2023-03-15T06:42:36;101760.59;;;-1.43;81.49
1480;BME280;732;51.698;4.886;2023-03-15T06:45:07;101796.16;;;-1.02;80.96
1480;BME280;732;51.698;4.886;2023-03-15T06:47:36;101822.91;;;-0.94;80.25
1480;BME280;732;51.698;4.886;2023-03-15T06:50:06;101774.22;;;-1.18;79.72
1480;BME280;732;51.698;4.886;2023-03-15T06:52:36;101738.59;;;-1.42;79.95
1480;BME280;732;51.698;4.886;2023-03-15T06:55:06;101827.84;;;-0.87;79.83
1480;BME280;732;51.698;4.886;2023-03-15T06:57:36;101807.38;;;-0.98;80.29
1480;BME280;732;51.698;4.886;2023-03-15T07:00:06;101834.84;;;-0.86;79.98
1480;BME280;732;51.698;4.886;2023-03-15T07:02:37;101836.56;;;-0.69;80.10
1480;BME280;732;51.698;4.886;2023-03-15T07:05:08;101847.25;;;-0.72;80.46
1480;BME280;732;51.698;4.886;2023-03-15T07:07:38;101794.56;;;-0.88;80.15
1480;BME280;732;51.698;4.886;2023-03-15T07:10:08;101824.41;;;-0.72;79.37
1480;BME280;732;51.698;4.886;2023-03-15T07:12:37;101848.28;;;-0.59;79.98
1480;BME280;732;51.698;4.886;2023-03-15T07:15:07;101818.34;;;-0.74;79.53
1480;BME280;732;51.698;4.886;2023-03-15T07:17:36;101830.75;;;-0.60;78.69
1480;BME280;732;51.698;4.886;2023-03-15T07:20:05;101838.84;;;-0.63;78.64
1480;BME280;732;51.698;4.886;2023-03-15T07:22:34;101833.81;;;-0.68;79.10
1480;BME280;732;51.698;4.886;2023-03-15T07:25:05;101871.44;;;-0.48;79.65
1480;BME280;732;51.698;4.886;2023-03-15T07:27:35;101882.03;;;-0.34;79.23
1480;BME280;732;51.698;4.886;2023-03-15T07:30:05;101850.59;;;-0.53;79.50
1480;BME280;732;51.698;4.886;2023-03-15T07:32:35;101868.84;;;-0.34;79.28
1480;BME280;732;51.698;4.886;2023-03-15T07:35:05;101851.75;;;-0.42;79.08
1480;BME280;732;51.698;4.886;2023-03-15T07:37:36;101899.56;;;-0.33;79.20
1480;BME280;732;51.698;4.886;2023-03-15T07:40:13;101854.06;;;-0.68;80.41
1480;BME280;732;51.698;4.886;2023-03-15T07:42:42;101904.50;;;-0.27;79.95
1480;BME280;732;51.698;4.886;2023-03-15T07:45:12;101869.47;;;-0.29;78.58
1480;BME280;732;51.698;4.886;2023-03-15T07:47:41;101890.03;;;-0.03;77.99
1480;BME280;732;51.698;4.886;2023-03-15T07:50:10;101883.56;;;-0.14;78.77
1480;BME280;732;51.698;4.886;2023-03-15T07:52:43;101921.00;;;0.09;78.37
1480;BME280;732;51.698;4.886;2023-03-15T07:55:13;101932.91;;;0.16;78.08
1480;BME280;732;51.698;4.886;2023-03-15T07:57:41;101929.63;;;0.27;78.33
1480;BME280;732;51.698;4.886;2023-03-15T08:00:11;101923.09;;;0.18;78.46
1480;BME280;732;51.698;4.886;2023-03-15T08:02:40;101875.91;;;-0.02;78.99
1480;BME280;732;51.698;4.886;2023-03-15T08:05:09;101943.69;;;0.58;78.51
1480;BME280;732;51.698;4.886;2023-03-15T08:07:37;101914.91;;;0.53;78.24
1480;BME280;732;51.698;4.886;2023-03-15T08:10:07;101917.31;;;0.73;78.68
1480;BME280;732;51.698;4.886;2023-03-15T08:12:39;101955.78;;;1.22;77.82
1480;BME280;732;51.698;4.886;2023-03-15T08:15:11;101916.59;;;1.14;75.85
1480;BME280;732;51.698;4.886;2023-03-15T08:17:40;101939.63;;;1.55;74.54
1480;BME280;732;51.698;4.886;2023-03-15T08:20:12;101961.53;;;1.14;72.49
1480;BME280;732;51.698;4.886;2023-03-15T08:22:44;101929.34;;;0.93;73.19
1480;BME280;732;51.698;4.886;2023-03-15T08:25:14;101943.59;;;1.05;73.13
1480;BME280;732;51.698;4.886;2023-03-15T08:27:45;101942.75;;;1.04;71.65
1480;BME280;732;51.698;4.886;2023-03-15T08:30:15;101925.00;;;0.92;72.74
1480;BME280;732;51.698;4.886;2023-03-15T08:32:46;101906.59;;;1.05;72.44
1480;BME280;732;51.698;4.886;2023-03-15T08:35:16;101966.28;;;1.52;73.05
1480;BME280;732;51.698;4.886;2023-03-15T08:37:45;101957.00;;;1.74;70.68
1480;BME280;732;51.698;4.886;2023-03-15T08:40:15;101900.41;;;1.62;70.17
1480;BME280;732;51.698;4.886;2023-03-15T08:42:46;101970.84;;;2.06;70.88
1480;BME280;732;51.698;4.886;2023-03-15T08:45:15;101950.41;;;2.08;71.10
1480;BME280;732;51.698;4.886;2023-03-15T08:47:44;101970.19;;;2.30;69.23
1480;BME280;732;51.698;4.886;2023-03-15T08:50:14;101949.69;;;2.19;69.32
1480;BME280;732;51.698;4.886;2023-03-15T08:52:43;101983.41;;;2.57;69.03
1480;BME280;732;51.698;4.886;2023-03-15T08:55:12;101981.53;;;2.59;67.87
1480;BME280;732;51.698;4.886;2023-03-15T08:57:41;101979.78;;;2.86;70.00
1480;BME280;732;51.698;4.886;2023-03-15T09:00:12;101939.78;;;2.63;66.55
1480;BME280;732;51.698;4.886;2023-03-15T09:02:44;101957.16;;;2.80;66.12
1480;BME280;732;51.698;4.886;2023-03-15T09:05:15;101951.03;;;2.79;65.96
1480;BME280;732;51.698;4.886;2023-03-15T09:07:44;101963.34;;;3.19;67.53
1480;BME280;732;51.698;4.886;2023-03-15T09:10:16;101962.19;;;3.10;64.40
1480;BME280;732;51.698;4.886;2023-03-15T09:12:47;101959.75;;;3.33;66.29
1480;BME280;732;51.698;4.886;2023-03-15T09:15:18;101984.78;;;3.42;64.92
1480;BME280;732;51.698;4.886;2023-03-15T09:17:49;101989.09;;;3.56;67.35
1480;BME280;732;51.698;4.886;2023-03-15T09:20:19;101964.63;;;3.39;64.36
1480;BME280;732;51.698;4.886;2023-03-15T09:22:51;101973.72;;;3.48;64.41
1480;BME280;732;51.698;4.886;2023-03-15T09:25:22;101939.66;;;3.42;65.64
1480;BME280;732;51.698;4.886;2023-03-15T09:27:51;101916.16;;;3.24;63.94
1480;BME280;732;51.698;4.886;2023-03-15T09:30:21;101919.91;;;3.46;63.01
1480;BME280;732;51.698;4.886;2023-03-15T09:32:50;101956.69;;;3.76;64.03
1480;BME280;732;51.698;4.886;2023-03-15T09:35:20;101957.78;;;3.74;61.16
1480;BME280;732;51.698;4.886;2023-03-15T09:37:52;101963.16;;;3.85;60.12
1480;BME280;732;51.698;4.886;2023-03-15T09:40:23;101984.19;;;4.13;60.07
1480;BME280;732;51.698;4.886;2023-03-15T09:43:02;101978.31;;;4.20;61.11
1480;BME280;732;51.698;4.886;2023-03-15T09:45:50;102005.00;;;4.43;63.00
1480;BME280;732;51.698;4.886;2023-03-15T09:48:27;101971.59;;;4.28;60.84
1480;BME280;732;51.698;4.886;2023-03-15T09:51:03;101935.34;;;4.02;59.43
1480;BME280;732;51.698;4.886;2023-03-15T09:53:38;101995.53;;;4.52;60.61
1480;BME280;732;51.698;4.886;2023-03-15T09:56:21;101969.78;;;4.28;61.45
1480;BME280;732;51.698;4.886;2023-03-15T09:58:56;102000.41;;;4.21;57.20
1480;BME280;732;51.698;4.886;2023-03-15T10:01:30;101978.31;;;4.45;58.65
1480;BME280;732;51.698;4.886;2023-03-15T10:04:04;101961.31;;;4.47;62.56
1480;BME280;732;51.698;4.886;2023-03-15T10:06:36;102001.81;;;4.86;57.96
1480;BME280;732;51.698;4.886;2023-03-15T10:09:17;101970.88;;;4.97;59.67
1480;BME280;732;51.698;4.886;2023-03-15T10:12:00;101971.53;;;5.12;56.55
1480;BME280;732;51.698;4.886;2023-03-15T10:15:02;102000.94;;;5.33;55.82
1480;BME280;732;51.698;4.886;2023-03-15T10:17:47;101987.97;;;5.28;54.98
1480;BME280;732;51.698;4.886;2023-03-15T10:20:22;101988.72;;;5.30;55.78
1480;BME280;732;51.698;4.886;2023-03-15T10:22:55;101937.66;;;5.02;56.69
1480;BME280;732;51.698;4.886;2023-03-15T10:25:28;102003.00;;;5.41;58.18
1480;BME280;732;51.698;4.886;2023-03-15T10:28:00;101987.28;;;5.37;58.26
1480;BME280;732;51.698;4.886;2023-03-15T10:30:32;101956.66;;;5.43;59.15
1480;BME280;732;51.698;4.886;2023-03-15T10:33:19;102009.63;;;5.92;56.71
1480;BME280;732;51.698;4.886;2023-03-15T10:35:50;102015.34;;;5.98;54.23
1480;BME280;732;51.698;4.886;2023-03-15T10:38:33;102024.16;;;5.87;54.24
1480;BME280;732;51.698;4.886;2023-03-15T10:41:05;102024.03;;;6.00;56.03
1480;BME280;732;51.698;4.886;2023-03-15T10:43:35;102010.03;;;5.87;51.29
1480;BME280;732;51.698;4.886;2023-03-15T10:46:08;101997.63;;;6.09;54.53
1480;BME280;732;51.698;4.886;2023-03-15T10:48:55;101993.44;;;6.39;54.29
1480;BME280;732;51.698;4.886;2023-03-15T10:51:27;101996.78;;;6.84;54.68
1480;BME280;732;51.698;4.886;2023-03-15T10:53:59;102032.84;;;7.52;51.43
1480;BME280;732;51.698;4.886;2023-03-15T10:56:40;102031.72;;;7.86;50.08
1480;BME280;732;51.698;4.886;2023-03-15T10:59:16;102002.34;;;7.95;48.22
1480;BME280;732;51.698;4.886;2023-03-15T11:01:47;102017.75;;;8.13;47.01
1480;BME280;732;51.698;4.886;2023-03-15T11:04:20;102021.72;;;8.19;46.40
1480;BME280;732;51.698;4.886;2023-03-15T11:07:00;102041.03;;;8.42;50.68
1480;BME280;732;51.698;4.886;2023-03-15T11:09:38;102016.41;;;8.48;48.99
1480;BME280;732;51.698;4.886;2023-03-15T11:12:11;102057.94;;;8.62;46.59
1480;BME280;732;51.698;4.886;2023-03-15T11:14:48;102039.31;;;8.21;44.94
1480;BME280;732;51.698;4.886;2023-03-15T11:17:20;102035.47;;;8.04;43.05
1480;BME280;732;51.698;4.886;2023-03-15T11:19:55;102049.25;;;8.09;44.26
1480;BME280;732;51.698;4.886;2023-03-15T11:22:27;102050.47;;;7.95;44.15
1480;BME280;732;51.698;4.886;2023-03-15T11:24:56;102060.13;;;7.87;45.32
1480;BME280;732;51.698;4.886;2023-03-15T11:27:26;102062.81;;;7.56;46.60
1480;BME280;732;51.698;4.886;2023-03-15T11:29:58;102044.59;;;7.40;46.87
1480;BME280;732;51.698;4.886;2023-03-15T11:32:31;102028.56;;;7.40;46.19
1480;BME280;732;51.698;4.886;2023-03-15T11:35:05;102046.06;;;7.85;49.20
1480;BME280;732;51.698;4.886;2023-03-15T11:37:39;102028.03;;;8.18;46.42
1480;BME280;732;51.698;4.886;2023-03-15T11:40:16;102049.50;;;8.67;46.89
1480;BME280;732;51.698;4.886;2023-03-15T11:42:49;102012.03;;;8.67;45.67
1480;BME280;732;51.698;4.886;2023-03-15T11:45:30;102054.69;;;8.88;47.26
1480;BME280;732;51.698;4.886;2023-03-15T11:48:26;102026.66;;;8.92;46.63
1480;BME280;732;51.698;4.886;2023-03-15T11:50:59;102038.75;;;9.06;42.10
1480;BME280;732;51.698;4.886;2023-03-15T11:53:34;102022.72;;;8.96;44.76
1480;BME280;732;51.698;4.886;2023-03-15T11:56:22;102046.66;;;9.17;45.08
1480;BME280;732;51.698;4.886;2023-03-15T11:59:06;102035.56;;;8.92;43.07
1480;BME280;732;51.698;4.886;2023-03-15T12:01:41;102015.84;;;8.84;43.99
1480;BME280;732;51.698;4.886;2023-03-15T12:04:40;102013.69;;;8.97;45.86
1480;BME280;732;51.698;4.886;2023-03-15T12:07:36;102038.75;;;9.06;42.96
1480;BME280;732;51.698;4.886;2023-03-15T12:10:33;101983.03;;;8.52;40.49
1480;BME280;732;51.698;4.886;2023-03-15T12:13:23;102017.09;;;8.40;41.36
1480;BME280;732;51.698;4.886;2023-03-15T12:15:52;102055.47;;;8.20;39.99
1480;BME280;732;51.698;4.886;2023-03-15T12:18:32;102044.25;;;7.85;38.50
1480;BME280;732;51.698;4.886;2023-03-15T12:21:12;102037.94;;;7.65;41.07
1480;BME280;732;51.698;4.886;2023-03-15T12:23:55;102030.13;;;7.73;40.67
1480;BME280;732;51.698;4.886;2023-03-15T12:26:40;101966.84;;;7.33;39.88
1480;BME280;732;51.698;4.886;2023-03-15T12:29:19;102025.59;;;7.64;41.57
1480;BME280;732;51.698;4.886;2023-03-15T12:31:55;102005.34;;;7.30;42.39
1480;BME280;732;51.698;4.886;2023-03-15T12:34:29;102027.09;;;7.57;42.72
1480;BME280;732;51.698;4.886;2023-03-15T12:37:07;102027.75;;;7.80;43.61
1480;BME280;732;51.698;4.886;2023-03-15T12:39:45;102037.63;;;7.89;42.67
1480;BME280;732;51.698;4.886;2023-03-15T12:43:02;102031.53;;;7.77;42.38
1480;BME280;732;51.698;4.886;2023-03-15T12:45:37;102006.94;;;7.84;42.51
1480;BME280;732;51.698;4.886;2023-03-15T12:48:20;102028.06;;;8.27;41.94
1480;BME280;732;51.698;4.886;2023-03-15T12:51:11;102028.44;;;8.13;40.34
1480;BME280;732;51.698;4.886;2023-03-15T12:54:00;102027.94;;;8.29;40.49
1480;BME280;732;51.698;4.886;2023-03-15T12:56:41;102032.06;;;7.71;41.02
1480;BME280;732;51.698;4.886;2023-03-15T12:59:31;102015.41;;;7.48;42.27
1480;BME280;732;51.698;4.886;2023-03-15T13:02:01;102007.34;;;7.38;41.27
1480;BME280;732;51.698;4.886;2023-03-15T13:04:31;101998.16;;;7.31;42.04
1480;BME280;732;51.698;4.886;2023-03-15T13:07:17;102028.50;;;7.30;40.21
1480;BME280;732;51.698;4.886;2023-03-15T13:10:25;102024.88;;;7.62;41.69
1480;BME280;732;51.698;4.886;2023-03-15T13:13:16;102023.53;;;7.77;44.34
1480;BME280;732;51.698;4.886;2023-03-15T13:16:03;102002.47;;;7.84;40.62
1480;BME280;732;51.698;4.886;2023-03-15T13:18:44;102010.97;;;7.99;39.96
1480;BME280;732;51.698;4.886;2023-03-15T13:21:19;101988.94;;;8.17;41.67
1480;BME280;732;51.698;4.886;2023-03-15T13:23:51;102018.66;;;8.72;39.94
1480;BME280;732;51.698;4.886;2023-03-15T13:26:41;101983.88;;;8.62;37.71
1480;BME280;732;51.698;4.886;2023-03-15T13:29:15;101995.25;;;8.94;39.89
1480;BME280;732;51.698;4.886;2023-03-15T13:31:46;102011.16;;;8.95;37.09
1480;BME280;732;51.698;4.886;2023-03-15T13:34:28;102015.53;;;8.87;38.58
1480;BME280;732;51.698;4.886;2023-03-15T13:36:58;102001.75;;;8.33;37.86
1480;BME280;732;51.698;4.886;2023-03-15T13:39:30;102002.56;;;8.23;38.07
1480;BME280;732;51.698;4.886;2023-03-15T13:42:02;102013.00;;;8.26;38.94
1480;BME280;732;51.698;4.886;2023-03-15T13:44:33;102031.06;;;8.54;38.42
1480;BME280;732;51.698;4.886;2023-03-15T13:47:01;102028.34;;;8.34;39.08
1480;BME280;732;51.698;4.886;2023-03-15T13:49:32;102005.09;;;8.25;39.04
1480;BME280;732;51.698;4.886;2023-03-15T13:52:03;102023.13;;;8.23;39.60
1480;BME280;732;51.698;4.886;2023-03-15T13:54:38;102040.03;;;8.33;38.85
1480;BME280;732;51.698;4.886;2023-03-15T13:57:11;102027.63;;;8.32;37.80
1480;BME280;732;51.698;4.886;2023-03-15T13:59:46;102035.69;;;8.61;38.81
1480;BME280;732;51.698;4.886;2023-03-15T14:02:21;102011.63;;;8.61;37.85
1480;BME280;732;51.698;4.886;2023-03-15T14:04:55;101986.81;;;8.69;37.29
1480;BME280;732;51.698;4.886;2023-03-15T14:07:28;102028.59;;;9.09;38.69
1480;BME280;732;51.698;4.886;2023-03-15T14:10:30;102036.34;;;9.22;36.26